sensor_id;sensor_type;location;lat;lon;timestamp;P1;durP1;ratioP1;P2;durP2;ratioP2
33862;SDS011;20158;51.436;-2.742;2023-04-24T00:00:30;9.82;;;8.82;;
33862;SDS011;20158;51.436;-2.742;2023-04-24T00:02:56;9.55;;;8.65;;
33862;SDS011;20158;51.436;-2.742;2023-04-24T00:05:23;8.68;;;7.88;;
33862;SDS011;20158;51.436;-2.742;2023-04-24T00:07:49;9.68;;;8.63;;
33862;SDS011;20158;51.436;-2.742;2023-04-24T00:10:18;9.85;;;8.95;;
33862;SDS011;20158;51.436;-2.742;2023-04-24T00:12:44;11.00;;;8.48;;
33862;SDS011;20158;51.436;-2.742;2023-04-24T00:15:10;10.00;;;9.02;;
33862;SDS011;20158;51.436;-2.742;2023-04-24T00:17:36;9.35;;;8.55;;
33862;SDS011;20158;51.436;-2.742;2023-04-24T00:20:02;8.68;;;7.85;;
33862;SDS011;20158;51.436;-2.742;2023-04-24T00:22:30;8.60;;;7.75;;
33862;SDS011;20158;51.436;-2.742;2023-04-24T00:24:56;9.05;;;8.10;;
33862;SDS011;20158;51.436;-2.742;2023-04-24T00:27:23;8.45;;;7.65;;
33862;SDS011;20158;51.436;-2.742;2023-04-24T00:29:49;8.15;;;7.35;;
33862;SDS011;20158;51.436;-2.742;2023-04-24T00:32:16;8.15;;;7.35;;
33862;SDS011;20158;51.436;-2.742;2023-04-24T00:34:42;8.65;;;7.85;;
33862;SDS011;20158;51.436;-2.742;2023-04-24T00:37:08;8.80;;;8.00;;
33862;SDS011;20158;51.436;-2.742;2023-04-24T00:39:36;8.07;;;7.35;;
33862;SDS011;20158;51.436;-2.742;2023-04-24T00:42:02;8.57;;;7.78;;
33862;SDS011;20158;51.436;-2.742;2023-04-24T00:44:28;9.18;;;7.75;;
33862;SDS011;20158;51.436;-2.742;2023-04-24T00:46:54;7.50;;;6.60;;
33862;SDS011;20158;51.436;-2.742;2023-04-24T00:49:21;8.57;;;7.82;;
33862;SDS011;20158;51.436;-2.742;2023-04-24T00:51:47;8.23;;;7.20;;
33862;SDS011;20158;51.436;-2.742;2023-04-24T00:54:15;8.05;;;7.28;;
33862;SDS011;20158;51.436;-2.742;2023-04-24T00:56:41;7.95;;;7.22;;
33862;SDS011;20158;51.436;-2.742;2023-04-24T00:59:09;8.70;;;7.30;;
33862;SDS011;20158;51.436;-2.742;2023-04-24T01:01:35;7.43;;;6.78;;
33862;SDS011;20158;51.436;-2.742;2023-04-24T01:04:02;7.72;;;6.90;;
33862;SDS011;20158;51.436;-2.742;2023-04-24T01:06:29;7.55;;;6.85;;
33862;SDS011;20158;51.436;-2.742;2023-04-24T01:08:57;7.50;;;6.75;;
33862;SDS011;20158;51.436;-2.742;2023-04-24T01:11:24;8.82;;;7.10;;
33862;SDS011;20158;51.436;-2.742;2023-04-24T01:13:50;9.60;;;7.30;;
33862;SDS011;20158;51.436;-2.742;2023-04-24T01:16:17;7.97;;;7.25;;
33862;SDS011;20158;51.436;-2.742;2023-04-24T01:18:46;8.10;;;7.05;;
33862;SDS011;20158;51.436;-2.742;2023-04-24T01:21:15;7.88;;;7.13;;
33862;SDS011;20158;51.436;-2.742;2023-04-24T01:23:45;8.95;;;6.72;;
33862;SDS011;20158;51.436;-2.742;2023-04-24T01:26:12;8.05;;;7.25;;
33862;SDS011;20158;51.436;-2.742;2023-04-24T01:28:40;7.18;;;6.32;;
33862;SDS011;20158;51.436;-2.742;2023-04-24T01:31:06;7.85;;;7.05;;
33862;SDS011;20158;51.436;-2.742;2023-04-24T01:33:32;7.78;;;6.30;;
33862;SDS011;20158;51.436;-2.742;2023-04-24T01:35:58;6.93;;;6.22;;
33862;SDS011;20158;51.436;-2.742;2023-04-24T01:38:24;7.43;;;6.78;;
33862;SDS011;20158;51.436;-2.742;2023-04-24T01:40:51;7.10;;;6.40;;
33862;SDS011;20158;51.436;-2.742;2023-04-24T01:43:18;8.15;;;6.78;;
33862;SDS011;20158;51.436;-2.742;2023-04-24T01:45:44;7.85;;;7.10;;
33862;SDS011;20158;51.436;-2.742;2023-04-24T01:48:11;7.00;;;6.30;;
33862;SDS011;20158;51.436;-2.742;2023-04-24T01:50:38;7.15;;;6.45;;
33862;SDS011;20158;51.436;-2.742;2023-04-24T01:53:04;7.88;;;6.65;;
33862;SDS011;20158;51.436;-2.742;2023-04-24T01:55:30;7.60;;;6.70;;
33862;SDS011;20158;51.436;-2.742;2023-04-24T01:57:57;7.43;;;6.72;;
33862;SDS011;20158;51.436;-2.742;2023-04-24T02:00:24;8.60;;;7.03;;
33862;SDS011;20158;51.436;-2.742;2023-04-24T02:02:52;7.10;;;6.38;;
33862;SDS011;20158;51.436;-2.742;2023-04-24T02:05:18;7.95;;;6.43;;
33862;SDS011;20158;51.436;-2.742;2023-04-24T02:07:44;10.07;;;6.75;;
33862;SDS011;20158;51.436;-2.742;2023-04-24T02:10:10;7.43;;;6.47;;
33862;SDS011;20158;51.436;-2.742;2023-04-24T02:12:41;7.55;;;5.97;;
33862;SDS011;20158;51.436;-2.742;2023-04-24T02:15:07;9.00;;;6.70;;
33862;SDS011;20158;51.436;-2.742;2023-04-24T02:17:36;7.57;;;6.85;;
33862;SDS011;20158;51.436;-2.742;2023-04-24T02:20:03;7.97;;;7.18;;
33862;SDS011;20158;51.436;-2.742;2023-04-24T02:22:30;7.60;;;6.47;;
33862;SDS011;20158;51.436;-2.742;2023-04-24T02:25:00;7.18;;;6.47;;
33862;SDS011;20158;51.436;-2.742;2023-04-24T02:27:26;7.97;;;6.47;;
33862;SDS011;20158;51.436;-2.742;2023-04-24T02:29:52;8.02;;;6.85;;
33862;SDS011;20158;51.436;-2.742;2023-04-24T02:32:18;7.55;;;6.75;;
33862;SDS011;20158;51.436;-2.742;2023-04-24T02:34:44;7.50;;;6.80;;
33862;SDS011;20158;51.436;-2.742;2023-04-24T02:37:11;8.85;;;7.00;;
33862;SDS011;20158;51.436;-2.742;2023-04-24T02:39:37;7.13;;;6.43;;
33862;SDS011;20158;51.436;-2.742;2023-04-24T02:42:06;7.28;;;6.50;;
33862;SDS011;20158;51.436;-2.742;2023-04-24T02:44:34;7.18;;;6.35;;
33862;SDS011;20158;51.436;-2.742;2023-04-24T02:47:00;7.25;;;6.28;;
33862;SDS011;20158;51.436;-2.742;2023-04-24T02:49:26;7.55;;;6.85;;
33862;SDS011;20158;51.436;-2.742;2023-04-24T02:51:53;7.35;;;6.65;;
33862;SDS011;20158;51.436;-2.742;2023-04-24T02:54:18;7.00;;;5.57;;
33862;SDS011;20158;51.436;-2.742;2023-04-24T02:56:44;7.90;;;6.75;;
33862;SDS011;20158;51.436;-2.742;2023-04-24T02:59:10;8.95;;;7.03;;
33862;SDS011;20158;51.436;-2.742;2023-04-24T03:01:36;7.18;;;6.53;;
33862;SDS011;20158;51.436;-2.742;2023-04-24T03:04:02;7.28;;;6.57;;
33862;SDS011;20158;51.436;-2.742;2023-04-24T03:06:28;7.18;;;6.28;;
33862;SDS011;20158;51.436;-2.742;2023-04-24T03:08:56;7.55;;;6.72;;
33862;SDS011;20158;51.436;-2.742;2023-04-24T03:11:22;7.47;;;6.78;;
33862;SDS011;20158;51.436;-2.742;2023-04-24T03:13:48;7.10;;;6.43;;
33862;SDS011;20158;51.436;-2.742;2023-04-24T03:16:14;7.43;;;6.75;;
33862;SDS011;20158;51.436;-2.742;2023-04-24T03:18:40;6.85;;;6.20;;
33862;SDS011;20158;51.436;-2.742;2023-04-24T03:21:07;6.65;;;6.00;;
33862;SDS011;20158;51.436;-2.742;2023-04-24T03:23:33;8.90;;;6.55;;
33862;SDS011;20158;51.436;-2.742;2023-04-24T03:25:59;7.90;;;7.10;;
33862;SDS011;20158;51.436;-2.742;2023-04-24T03:28:25;6.70;;;6.05;;
33862;SDS011;20158;51.436;-2.742;2023-04-24T03:30:59;7.22;;;6.53;;
33862;SDS011;20158;51.436;-2.742;2023-04-24T03:33:28;7.28;;;6.55;;
33862;SDS011;20158;51.436;-2.742;2023-04-24T03:35:59;7.75;;;7.05;;
33862;SDS011;20158;51.436;-2.742;2023-04-24T03:38:26;7.78;;;6.97;;
33862;SDS011;20158;51.436;-2.742;2023-04-24T03:41:02;7.20;;;6.50;;
33862;SDS011;20158;51.436;-2.742;2023-04-24T03:43:37;7.65;;;6.75;;
33862;SDS011;20158;51.436;-2.742;2023-04-24T03:46:05;8.00;;;6.95;;
33862;SDS011;20158;51.436;-2.742;2023-04-24T03:48:35;8.32;;;7.25;;
33862;SDS011;20158;51.436;-2.742;2023-04-24T03:51:01;7.35;;;6.65;;
33862;SDS011;20158;51.436;-2.742;2023-04-24T03:53:35;7.60;;;6.80;;
33862;SDS011;20158;51.436;-2.742;2023-04-24T03:56:01;7.65;;;6.95;;
33862;SDS011;20158;51.436;-2.742;2023-04-24T03:58:29;8.13;;;7.38;;
33862;SDS011;20158;51.436;-2.742;2023-04-24T04:00:55;8.20;;;7.35;;
33862;SDS011;20158;51.436;-2.742;2023-04-24T04:06:04;8.20;;;6.95;;
33862;SDS011;20158;51.436;-2.742;2023-04-24T04:08:31;8.88;;;7.68;;
33862;SDS011;20158;51.436;-2.742;2023-04-24T04:10:57;8.60;;;6.95;;
33862;SDS011;20158;51.436;-2.742;2023-04-24T04:13:23;8.05;;;7.25;;
33862;SDS011;20158;51.436;-2.742;2023-04-24T04:15:49;8.35;;;7.55;;
33862;SDS011;20158;51.436;-2.742;2023-04-24T04:18:16;9.40;;;8.50;;
33862;SDS011;20158;51.436;-2.742;2023-04-24T04:20:42;8.38;;;7.57;;
33862;SDS011;20158;51.436;-2.742;2023-04-24T04:23:11;8.23;;;7.43;;
33862;SDS011;20158;51.436;-2.742;2023-04-24T04:25:50;11.27;;;10.18;;
33862;SDS011;20158;51.436;-2.742;2023-04-24T04:28:20;9.52;;;8.52;;
33862;SDS011;20158;51.436;-2.742;2023-04-24T04:30:47;9.10;;;8.20;;
33862;SDS011;20158;51.436;-2.742;2023-04-24T04:33:13;9.10;;;8.30;;
33862;SDS011;20158;51.436;-2.742;2023-04-24T04:35:41;8.48;;;7.78;;
33862;SDS011;20158;51.436;-2.742;2023-04-24T04:38:08;8.85;;;8.05;;
33862;SDS011;20158;51.436;-2.742;2023-04-24T04:41:01;9.68;;;8.73;;
33862;SDS011;20158;51.436;-2.742;2023-04-24T04:43:30;9.85;;;7.82;;
33862;SDS011;20158;51.436;-2.742;2023-04-24T04:45:59;9.35;;;8.43;;
33862;SDS011;20158;51.436;-2.742;2023-04-24T04:48:59;8.57;;;7.63;;
33862;SDS011;20158;51.436;-2.742;2023-04-24T04:51:28;10.32;;;8.38;;
33862;SDS011;20158;51.436;-2.742;2023-04-24T04:53:54;9.10;;;7.82;;
33862;SDS011;20158;51.436;-2.742;2023-04-24T04:56:22;9.82;;;8.93;;
33862;SDS011;20158;51.436;-2.742;2023-04-24T04:58:49;10.02;;;9.02;;
33862;SDS011;20158;51.436;-2.742;2023-04-24T05:01:16;9.68;;;8.68;;
33862;SDS011;20158;51.436;-2.742;2023-04-24T05:03:45;8.43;;;7.63;;
33862;SDS011;20158;51.436;-2.742;2023-04-24T05:06:14;9.15;;;8.25;;
33862;SDS011;20158;51.436;-2.742;2023-04-24T05:08:40;10.43;;;8.38;;
33862;SDS011;20158;51.436;-2.742;2023-04-24T05:11:17;8.88;;;8.07;;
33862;SDS011;20158;51.436;-2.742;2023-04-24T05:13:46;10.65;;;8.98;;
33862;SDS011;20158;51.436;-2.742;2023-04-24T05:16:17;9.32;;;8.43;;
33862;SDS011;20158;51.436;-2.742;2023-04-24T05:18:45;9.38;;;8.50;;
33862;SDS011;20158;51.436;-2.742;2023-04-24T05:21:14;10.30;;;8.60;;
33862;SDS011;20158;51.436;-2.742;2023-04-24T05:23:42;9.40;;;8.50;;
33862;SDS011;20158;51.436;-2.742;2023-04-24T05:26:09;10.18;;;9.07;;
33862;SDS011;20158;51.436;-2.742;2023-04-24T05:28:35;10.23;;;9.15;;
33862;SDS011;20158;51.436;-2.742;2023-04-24T05:31:06;9.10;;;8.27;;
33862;SDS011;20158;51.436;-2.742;2023-04-24T05:33:33;9.38;;;8.48;;
33862;SDS011;20158;51.436;-2.742;2023-04-24T05:35:59;9.35;;;8.13;;
33862;SDS011;20158;51.436;-2.742;2023-04-24T05:38:26;9.63;;;8.57;;
33862;SDS011;20158;51.436;-2.742;2023-04-24T05:40:52;9.45;;;8.50;;
33862;SDS011;20158;51.436;-2.742;2023-04-24T05:43:18;9.75;;;8.82;;
33862;SDS011;20158;51.436;-2.742;2023-04-24T05:45:44;10.23;;;9.25;;
33862;SDS011;20158;51.436;-2.742;2023-04-24T05:48:10;9.85;;;8.85;;
33862;SDS011;20158;51.436;-2.742;2023-04-24T05:50:36;11.40;;;8.68;;
33862;SDS011;20158;51.436;-2.742;2023-04-24T05:53:02;10.18;;;8.90;;
33862;SDS011;20158;51.436;-2.742;2023-04-24T05:55:32;10.48;;;8.60;;
33862;SDS011;20158;51.436;-2.742;2023-04-24T05:57:58;11.65;;;10.52;;
33862;SDS011;20158;51.436;-2.742;2023-04-24T06:00:25;12.40;;;10.65;;
33862;SDS011;20158;51.436;-2.742;2023-04-24T06:02:59;11.68;;;10.48;;
33862;SDS011;20158;51.436;-2.742;2023-04-24T06:05:26;13.63;;;12.25;;
33862;SDS011;20158;51.436;-2.742;2023-04-24T06:07:52;12.23;;;11.02;;
33862;SDS011;20158;51.436;-2.742;2023-04-24T06:10:20;11.95;;;10.73;;
33862;SDS011;20158;51.436;-2.742;2023-04-24T06:12:46;11.35;;;10.13;;
33862;SDS011;20158;51.436;-2.742;2023-04-24T06:15:16;10.05;;;8.85;;
33862;SDS011;20158;51.436;-2.742;2023-04-24T06:18:02;10.63;;;9.45;;
33862;SDS011;20158;51.436;-2.742;2023-04-24T06:20:28;12.25;;;9.90;;
33862;SDS011;20158;51.436;-2.742;2023-04-24T06:22:54;11.23;;;10.07;;
33862;SDS011;20158;51.436;-2.742;2023-04-24T06:25:20;11.20;;;9.88;;
33862;SDS011;20158;51.436;-2.742;2023-04-24T06:27:46;10.82;;;9.23;;
33862;SDS011;20158;51.436;-2.742;2023-04-24T06:30:12;12.93;;;10.30;;
33862;SDS011;20158;51.436;-2.742;2023-04-24T06:32:38;12.20;;;9.88;;
33862;SDS011;20158;51.436;-2.742;2023-04-24T06:35:05;10.90;;;9.80;;
33862;SDS011;20158;51.436;-2.742;2023-04-24T06:37:33;11.00;;;9.90;;
33862;SDS011;20158;51.436;-2.742;2023-04-24T06:39:59;12.10;;;10.45;;
33862;SDS011;20158;51.436;-2.742;2023-04-24T06:42:25;11.27;;;10.18;;
33862;SDS011;20158;51.436;-2.742;2023-04-24T06:44:51;12.73;;;11.45;;
33862;SDS011;20158;51.436;-2.742;2023-04-24T06:47:17;12.48;;;11.20;;
33862;SDS011;20158;51.436;-2.742;2023-04-24T06:49:43;12.43;;;10.40;;
33862;SDS011;20158;51.436;-2.742;2023-04-24T06:52:09;11.82;;;10.73;;
33862;SDS011;20158;51.436;-2.742;2023-04-24T06:54:35;11.77;;;10.63;;
33862;SDS011;20158;51.436;-2.742;2023-04-24T06:57:01;12.38;;;11.18;;
33862;SDS011;20158;51.436;-2.742;2023-04-24T06:59:28;12.95;;;11.57;;
33862;SDS011;20158;51.436;-2.742;2023-04-24T07:01:55;11.52;;;10.43;;
33862;SDS011;20158;51.436;-2.742;2023-04-24T07:04:22;10.95;;;9.88;;
33862;SDS011;20158;51.436;-2.742;2023-04-24T07:06:50;12.40;;;11.10;;
33862;SDS011;20158;51.436;-2.742;2023-04-24T07:09:16;11.43;;;10.23;;
33862;SDS011;20158;51.436;-2.742;2023-04-24T07:11:44;12.43;;;11.05;;
33862;SDS011;20158;51.436;-2.742;2023-04-24T07:14:10;13.57;;;12.07;;
33862;SDS011;20158;51.436;-2.742;2023-04-24T07:16:37;13.32;;;12.02;;
33862;SDS011;20158;51.436;-2.742;2023-04-24T07:19:03;11.60;;;10.60;;
33862;SDS011;20158;51.436;-2.742;2023-04-24T07:21:29;13.55;;;11.93;;
33862;SDS011;20158;51.436;-2.742;2023-04-24T07:23:56;13.15;;;11.73;;
33862;SDS011;20158;51.436;-2.742;2023-04-24T07:26:25;11.68;;;10.23;;
33862;SDS011;20158;51.436;-2.742;2023-04-24T07:28:53;11.27;;;10.00;;
33862;SDS011;20158;51.436;-2.742;2023-04-24T07:31:20;12.02;;;9.60;;
33862;SDS011;20158;51.436;-2.742;2023-04-24T07:33:46;10.85;;;9.73;;
33862;SDS011;20158;51.436;-2.742;2023-04-24T07:36:12;11.75;;;10.65;;
33862;SDS011;20158;51.436;-2.742;2023-04-24T07:38:41;11.07;;;9.95;;
33862;SDS011;20158;51.436;-2.742;2023-04-24T07:41:08;11.52;;;10.43;;
33862;SDS011;20158;51.436;-2.742;2023-04-24T07:43:34;12.35;;;10.60;;
33862;SDS011;20158;51.436;-2.742;2023-04-24T07:46:00;11.90;;;10.00;;
33862;SDS011;20158;51.436;-2.742;2023-04-24T07:48:26;10.40;;;9.40;;
33862;SDS011;20158;51.436;-2.742;2023-04-24T07:50:52;11.27;;;9.93;;
33862;SDS011;20158;51.436;-2.742;2023-04-24T07:53:19;10.73;;;9.70;;
33862;SDS011;20158;51.436;-2.742;2023-04-24T07:55:45;11.10;;;10.02;;
33862;SDS011;20158;51.436;-2.742;2023-04-24T07:58:11;11.90;;;10.13;;
33862;SDS011;20158;51.436;-2.742;2023-04-24T08:00:37;13.50;;;10.38;;
33862;SDS011;20158;51.436;-2.742;2023-04-24T08:03:03;13.27;;;10.40;;
33862;SDS011;20158;51.436;-2.742;2023-04-24T08:05:29;11.63;;;10.52;;
33862;SDS011;20158;51.436;-2.742;2023-04-24T08:07:55;12.68;;;11.10;;
33862;SDS011;20158;51.436;-2.742;2023-04-24T08:10:21;11.35;;;10.18;;
33862;SDS011;20158;51.436;-2.742;2023-04-24T08:12:48;13.13;;;10.23;;
33862;SDS011;20158;51.436;-2.742;2023-04-24T08:15:14;14.05;;;10.80;;
33862;SDS011;20158;51.436;-2.742;2023-04-24T08:17:40;12.85;;;11.18;;
33862;SDS011;20158;51.436;-2.742;2023-04-24T08:20:07;12.93;;;11.25;;
33862;SDS011;20158;51.436;-2.742;2023-04-24T08:22:42;14.15;;;12.20;;
33862;SDS011;20158;51.436;-2.742;2023-04-24T08:25:09;12.30;;;10.77;;
33862;SDS011;20158;51.436;-2.742;2023-04-24T08:27:36;14.02;;;11.85;;
33862;SDS011;20158;51.436;-2.742;2023-04-24T08:30:02;13.88;;;11.63;;
33862;SDS011;20158;51.436;-2.742;2023-04-24T08:32:29;12.05;;;10.80;;
33862;SDS011;20158;51.436;-2.742;2023-04-24T08:34:56;13.40;;;11.38;;
33862;SDS011;20158;51.436;-2.742;2023-04-24T08:37:23;13.70;;;11.13;;
33862;SDS011;20158;51.436;-2.742;2023-04-24T08:39:52;14.20;;;12.70;;
33862;SDS011;20158;51.436;-2.742;2023-04-24T08:42:19;14.60;;;12.20;;
33862;SDS011;20158;51.436;-2.742;2023-04-24T08:44:47;13.85;;;12.13;;
33862;SDS011;20158;51.436;-2.742;2023-04-24T08:47:14;13.55;;;11.98;;
33862;SDS011;20158;51.436;-2.742;2023-04-24T08:49:41;12.80;;;11.52;;
33862;SDS011;20158;51.436;-2.742;2023-04-24T08:52:08;15.52;;;13.13;;
33862;SDS011;20158;51.436;-2.742;2023-04-24T08:54:35;14.27;;;12.82;;
33862;SDS011;20158;51.436;-2.742;2023-04-24T08:57:02;14.05;;;11.55;;
33862;SDS011;20158;51.436;-2.742;2023-04-24T08:59:29;12.23;;;11.05;;
33862;SDS011;20158;51.436;-2.742;2023-04-24T09:01:57;13.02;;;11.38;;
33862;SDS011;20158;51.436;-2.742;2023-04-24T09:04:23;13.85;;;10.57;;
33862;SDS011;20158;51.436;-2.742;2023-04-24T09:06:56;17.13;;;12.82;;
33862;SDS011;20158;51.436;-2.742;2023-04-24T09:09:23;12.38;;;10.52;;
33862;SDS011;20158;51.436;-2.742;2023-04-24T09:11:51;13.02;;;11.25;;
33862;SDS011;20158;51.436;-2.742;2023-04-24T09:14:19;10.68;;;9.25;;
33862;SDS011;20158;51.436;-2.742;2023-04-24T09:16:46;9.82;;;8.82;;
33862;SDS011;20158;51.436;-2.742;2023-04-24T09:19:13;13.07;;;9.35;;
33862;SDS011;20158;51.436;-2.742;2023-04-24T09:21:39;11.90;;;8.63;;
33862;SDS011;20158;51.436;-2.742;2023-04-24T09:24:08;9.77;;;8.35;;
33862;SDS011;20158;51.436;-2.742;2023-04-24T09:26:45;7.43;;;6.65;;
33862;SDS011;20158;51.436;-2.742;2023-04-24T09:29:15;8.85;;;6.55;;
33862;SDS011;20158;51.436;-2.742;2023-04-24T09:31:42;8.32;;;6.53;;
33862;SDS011;20158;51.436;-2.742;2023-04-24T09:34:09;9.60;;;7.70;;
33862;SDS011;20158;51.436;-2.742;2023-04-24T09:36:36;9.30;;;8.15;;
33862;SDS011;20158;51.436;-2.742;2023-04-24T09:39:04;9.85;;;8.85;;
33862;SDS011;20158;51.436;-2.742;2023-04-24T09:41:33;11.77;;;10.57;;
33862;SDS011;20158;51.436;-2.742;2023-04-24T09:44:12;9.00;;;8.10;;
33862;SDS011;20158;51.436;-2.742;2023-04-24T09:46:50;9.20;;;8.30;;
33862;SDS011;20158;51.436;-2.742;2023-04-24T09:49:25;8.73;;;7.90;;
33862;SDS011;20158;51.436;-2.742;2023-04-24T09:51:53;7.65;;;6.95;;
33862;SDS011;20158;51.436;-2.742;2023-04-24T09:54:36;11.98;;;10.20;;
33862;SDS011;20158;51.436;-2.742;2023-04-24T09:57:03;9.73;;;8.30;;
33862;SDS011;20158;51.436;-2.742;2023-04-24T09:59:29;10.05;;;8.55;;
33862;SDS011;20158;51.436;-2.742;2023-04-24T10:01:55;10.63;;;9.15;;
33862;SDS011;20158;51.436;-2.742;2023-04-24T10:04:27;10.32;;;9.32;;
33862;SDS011;20158;51.436;-2.742;2023-04-24T10:06:57;12.77;;;10.82;;
33862;SDS011;20158;51.436;-2.742;2023-04-24T10:09:23;9.75;;;8.80;;
33862;SDS011;20158;51.436;-2.742;2023-04-24T10:11:51;9.13;;;7.88;;
33862;SDS011;20158;51.436;-2.742;2023-04-24T10:14:22;10.57;;;9.52;;
33862;SDS011;20158;51.436;-2.742;2023-04-24T10:16:49;8.90;;;8.10;;
33862;SDS011;20158;51.436;-2.742;2023-04-24T10:19:18;10.48;;;9.40;;
33862;SDS011;20158;51.436;-2.742;2023-04-24T10:21:44;10.40;;;9.13;;
33862;SDS011;20158;51.436;-2.742;2023-04-24T10:24:14;10.00;;;8.88;;
33862;SDS011;20158;51.436;-2.742;2023-04-24T10:26:41;11.88;;;8.48;;
33862;SDS011;20158;51.436;-2.742;2023-04-24T10:29:07;10.00;;;8.95;;
33862;SDS011;20158;51.436;-2.742;2023-04-24T10:31:37;13.45;;;10.23;;
33862;SDS011;20158;51.436;-2.742;2023-04-24T10:34:07;10.23;;;9.00;;
33862;SDS011;20158;51.436;-2.742;2023-04-24T10:36:34;11.55;;;10.35;;
33862;SDS011;20158;51.436;-2.742;2023-04-24T10:39:02;10.85;;;9.57;;
33862;SDS011;20158;51.436;-2.742;2023-04-24T10:41:31;10.13;;;9.18;;
33862;SDS011;20158;51.436;-2.742;2023-04-24T10:44:13;12.38;;;11.20;;
33862;SDS011;20158;51.436;-2.742;2023-04-24T10:49:11;11.93;;;10.82;;
33862;SDS011;20158;51.436;-2.742;2023-04-24T10:54:22;11.20;;;10.20;;
33862;SDS011;20158;51.436;-2.742;2023-04-24T11:02:38;10.25;;;9.25;;
33862;SDS011;20158;51.436;-2.742;2023-04-24T11:05:08;9.77;;;8.88;;
33862;SDS011;20158;51.436;-2.742;2023-04-24T11:10:45;9.18;;;8.30;;
33862;SDS011;20158;51.436;-2.742;2023-04-24T11:13:16;11.60;;;8.50;;
33862;SDS011;20158;51.436;-2.742;2023-04-24T11:15:42;8.40;;;7.57;;
33862;SDS011;20158;51.436;-2.742;2023-04-24T11:18:14;7.00;;;6.28;;
33862;SDS011;20158;51.436;-2.742;2023-04-24T11:20:44;6.47;;;5.88;;
33862;SDS011;20158;51.436;-2.742;2023-04-24T11:23:12;6.63;;;6.05;;
33862;SDS011;20158;51.436;-2.742;2023-04-24T11:25:39;6.38;;;5.78;;
33862;SDS011;20158;51.436;-2.742;2023-04-24T11:28:06;6.70;;;5.43;;
33862;SDS011;20158;51.436;-2.742;2023-04-24T11:30:33;6.13;;;5.63;;
33862;SDS011;20158;51.436;-2.742;2023-04-24T11:33:02;5.85;;;5.20;;
33862;SDS011;20158;51.436;-2.742;2023-04-24T11:35:29;5.57;;;5.07;;
33862;SDS011;20158;51.436;-2.742;2023-04-24T11:38:02;6.15;;;5.53;;
33862;SDS011;20158;51.436;-2.742;2023-04-24T11:40:29;6.03;;;5.47;;
33862;SDS011;20158;51.436;-2.742;2023-04-24T11:42:55;5.45;;;4.95;;
33862;SDS011;20158;51.436;-2.742;2023-04-24T11:45:22;5.68;;;5.13;;
33862;SDS011;20158;51.436;-2.742;2023-04-24T11:47:57;5.93;;;5.40;;
33862;SDS011;20158;51.436;-2.742;2023-04-24T11:50:24;5.68;;;5.15;;
33862;SDS011;20158;51.436;-2.742;2023-04-24T11:52:53;16.40;;;5.30;;
33862;SDS011;20158;51.436;-2.742;2023-04-24T11:57:46;5.68;;;5.18;;
33862;SDS011;20158;51.436;-2.742;2023-04-24T12:00:23;4.78;;;4.30;;
33862;SDS011;20158;51.436;-2.742;2023-04-24T12:02:50;5.28;;;4.88;;
33862;SDS011;20158;51.436;-2.742;2023-04-24T12:05:23;5.18;;;4.30;;
33862;SDS011;20158;51.436;-2.742;2023-04-24T12:07:51;5.43;;;4.93;;
33862;SDS011;20158;51.436;-2.742;2023-04-24T12:10:21;5.95;;;5.45;;
33862;SDS011;20158;51.436;-2.742;2023-04-24T12:12:51;5.70;;;5.18;;
33862;SDS011;20158;51.436;-2.742;2023-04-24T12:15:21;6.20;;;5.60;;
33862;SDS011;20158;51.436;-2.742;2023-04-24T12:17:47;5.32;;;4.82;;
33862;SDS011;20158;51.436;-2.742;2023-04-24T12:20:15;6.15;;;5.57;;
33862;SDS011;20158;51.436;-2.742;2023-04-24T12:25:17;4.57;;;4.18;;
33862;SDS011;20158;51.436;-2.742;2023-04-24T12:27:45;3.95;;;3.65;;
33862;SDS011;20158;51.436;-2.742;2023-04-24T12:30:15;4.22;;;3.83;;
33862;SDS011;20158;51.436;-2.742;2023-04-24T12:32:45;3.40;;;3.10;;
33862;SDS011;20158;51.436;-2.742;2023-04-24T12:35:18;3.50;;;3.20;;
33862;SDS011;20158;51.436;-2.742;2023-04-24T12:37:46;3.25;;;2.95;;
33862;SDS011;20158;51.436;-2.742;2023-04-24T12:40:12;2.80;;;2.60;;
33862;SDS011;20158;51.436;-2.742;2023-04-24T12:42:48;3.92;;;3.40;;
33862;SDS011;20158;51.436;-2.742;2023-04-24T12:45:16;3.55;;;3.10;;
33862;SDS011;20158;51.436;-2.742;2023-04-24T12:47:44;3.40;;;3.10;;
33862;SDS011;20158;51.436;-2.742;2023-04-24T12:50:12;3.33;;;2.95;;
33862;SDS011;20158;51.436;-2.742;2023-04-24T12:52:39;3.00;;;2.80;;
33862;SDS011;20158;51.436;-2.742;2023-04-24T12:55:05;3.17;;;2.88;;
33862;SDS011;20158;51.436;-2.742;2023-04-24T12:57:33;2.80;;;2.30;;
33862;SDS011;20158;51.436;-2.742;2023-04-24T13:00:00;3.75;;;2.75;;
33862;SDS011;20158;51.436;-2.742;2023-04-24T13:02:27;3.65;;;2.92;;
33862;SDS011;20158;51.436;-2.742;2023-04-24T13:04:55;2.25;;;2.05;;
33862;SDS011;20158;51.436;-2.742;2023-04-24T13:07:21;2.53;;;2.30;;
33862;SDS011;20158;51.436;-2.742;2023-04-24T13:09:48;2.83;;;2.60;;
33862;SDS011;20158;51.436;-2.742;2023-04-24T13:12:14;2.47;;;2.28;;
33862;SDS011;20158;51.436;-2.742;2023-04-24T13:14:40;2.40;;;2.20;;
33862;SDS011;20158;51.436;-2.742;2023-04-24T13:17:07;2.90;;;2.67;;
33862;SDS011;20158;51.436;-2.742;2023-04-24T13:19:36;2.58;;;2.38;;
33862;SDS011;20158;51.436;-2.742;2023-04-24T13:22:03;3.05;;;2.85;;
33862;SDS011;20158;51.436;-2.742;2023-04-24T13:24:30;2.75;;;2.42;;
33862;SDS011;20158;51.436;-2.742;2023-04-24T13:26:57;2.85;;;2.58;;
33862;SDS011;20158;51.436;-2.742;2023-04-24T13:29:23;4.05;;;3.53;;
33862;SDS011;20158;51.436;-2.742;2023-04-24T13:31:50;3.25;;;3.00;;
33862;SDS011;20158;51.436;-2.742;2023-04-24T13:34:17;2.53;;;2.33;;
33862;SDS011;20158;51.436;-2.742;2023-04-24T13:36:43;3.20;;;2.40;;
33862;SDS011;20158;51.436;-2.742;2023-04-24T13:39:09;3.38;;;2.80;;
33862;SDS011;20158;51.436;-2.742;2023-04-24T13:41:36;3.42;;;2.55;;
33862;SDS011;20158;51.436;-2.742;2023-04-24T13:44:02;2.80;;;2.60;;
33862;SDS011;20158;51.436;-2.742;2023-04-24T13:46:28;3.17;;;2.90;;
33862;SDS011;20158;51.436;-2.742;2023-04-24T13:48:54;2.85;;;2.60;;
33862;SDS011;20158;51.436;-2.742;2023-04-24T13:51:20;3.17;;;2.97;;
33862;SDS011;20158;51.436;-2.742;2023-04-24T13:53:46;2.33;;;2.13;;
33862;SDS011;20158;51.436;-2.742;2023-04-24T13:56:12;3.38;;;2.92;;
33862;SDS011;20158;51.436;-2.742;2023-04-24T13:58:39;3.15;;;2.80;;
33862;SDS011;20158;51.436;-2.742;2023-04-24T14:01:05;2.50;;;2.30;;
33862;SDS011;20158;51.436;-2.742;2023-04-24T14:03:32;2.70;;;2.50;;
33862;SDS011;20158;51.436;-2.742;2023-04-24T14:05:59;3.35;;;2.42;;
33862;SDS011;20158;51.436;-2.742;2023-04-24T14:08:25;2.35;;;2.15;;
33862;SDS011;20158;51.436;-2.742;2023-04-24T14:10:51;3.60;;;3.28;;
33862;SDS011;20158;51.436;-2.742;2023-04-24T14:13:17;2.95;;;2.58;;
33862;SDS011;20158;51.436;-2.742;2023-04-24T14:15:43;3.03;;;2.30;;
33862;SDS011;20158;51.436;-2.742;2023-04-24T14:18:09;2.85;;;2.65;;
33862;SDS011;20158;51.436;-2.742;2023-04-24T14:20:35;2.67;;;2.40;;
33862;SDS011;20158;51.436;-2.742;2023-04-24T14:23:01;3.20;;;2.90;;
33862;SDS011;20158;51.436;-2.742;2023-04-24T14:25:26;3.42;;;3.13;;
33862;SDS011;20158;51.436;-2.742;2023-04-24T14:27:52;3.05;;;2.67;;
33862;SDS011;20158;51.436;-2.742;2023-04-24T14:30:19;3.72;;;3.13;;
33862;SDS011;20158;51.436;-2.742;2023-04-24T14:32:45;3.60;;;3.30;;
33862;SDS011;20158;51.436;-2.742;2023-04-24T14:35:11;3.47;;;2.90;;
33862;SDS011;20158;51.436;-2.742;2023-04-24T14:37:37;3.53;;;3.22;;
33862;SDS011;20158;51.436;-2.742;2023-04-24T14:40:06;3.55;;;3.15;;
33862;SDS011;20158;51.436;-2.742;2023-04-24T14:42:33;3.55;;;3.25;;
33862;SDS011;20158;51.436;-2.742;2023-04-24T14:45:00;5.60;;;3.33;;
33862;SDS011;20158;51.436;-2.742;2023-04-24T14:47:26;3.08;;;2.80;;
33862;SDS011;20158;51.436;-2.742;2023-04-24T14:49:53;3.80;;;3.10;;
33862;SDS011;20158;51.436;-2.742;2023-04-24T14:52:18;3.55;;;3.25;;